createdAt,value
2023-01-15T00:02:25.495Z,37.25
2023-01-15T00:04:53.111Z,34.40
2023-01-15T00:07:20.720Z,37.08
2023-01-15T00:09:48.307Z,38.25
2023-01-15T00:12:15.899Z,39.92
2023-01-15T00:14:43.546Z,37.75
2023-01-15T00:17:11.097Z,39.38
2023-01-15T00:19:38.665Z,34.65
2023-01-15T00:22:06.257Z,31.65
2023-01-15T00:24:52.465Z,31.40
2023-01-15T00:27:38.780Z,31.88
2023-01-15T00:30:07.472Z,34.75
2023-01-15T00:32:38.006Z,33.65
2023-01-15T00:35:05.907Z,36.28
2023-01-15T00:37:34.121Z,35.25
2023-01-15T00:40:03.877Z,31.90
2023-01-15T00:42:31.492Z,33.58
2023-01-15T00:44:59.181Z,30.70
2023-01-15T00:47:27.217Z,33.00
2023-01-15T00:49:54.780Z,34.03
2023-01-15T00:52:22.393Z,31.65
2023-01-15T00:54:50.069Z,33.75
2023-01-15T00:57:17.661Z,32.10
2023-01-15T00:59:45.800Z,27.05
2023-01-15T01:02:13.644Z,28.85
2023-01-15T01:04:42.574Z,27.88
2023-01-15T01:07:10.475Z,28.20
2023-01-15T01:09:38.050Z,24.77
2023-01-15T01:12:05.793Z,24.85
2023-01-15T01:14:33.589Z,26.75
2023-01-15T01:17:01.273Z,25.30
2023-01-15T01:19:28.922Z,27.65
2023-01-15T01:21:56.548Z,29.00
2023-01-15T01:24:24.952Z,25.67
2023-01-15T01:26:54.606Z,29.92
2023-01-15T01:29:22.955Z,29.17
2023-01-15T01:31:51.406Z,28.63
2023-01-15T01:34:19.451Z,29.17
2023-01-15T01:36:47.327Z,27.15
2023-01-15T01:39:17.305Z,28.55
2023-01-15T01:41:45.567Z,31.42
2023-01-15T01:44:31.998Z,26.88
2023-01-15T01:47:07.622Z,27.55
2023-01-15T01:49:36.148Z,28.23
2023-01-15T01:52:07.275Z,32.03
2023-01-15T01:54:36.149Z,25.27
2023-01-15T01:57:05.240Z,30.60
2023-01-15T01:59:33.454Z,31.00
2023-01-15T02:02:01.396Z,32.33
2023-01-15T02:04:30.204Z,31.00
2023-01-15T02:06:59.507Z,30.73
2023-01-15T02:09:27.371Z,28.65
2023-01-15T02:11:57.214Z,31.45
2023-01-15T02:14:37.307Z,27.80
2023-01-15T02:17:08.068Z,27.67
2023-01-15T02:19:46.315Z,28.02
2023-01-15T02:22:23.109Z,28.88
2023-01-15T02:25:00.862Z,24.52
2023-01-15T02:27:28.781Z,26.05
2023-01-15T02:30:02.525Z,27.50
2023-01-15T02:32:46.420Z,26.83
2023-01-15T02:35:18.867Z,27.63
2023-01-15T02:37:49.470Z,28.20
2023-01-15T02:40:19.725Z,27.77
2023-01-15T02:42:48.477Z,27.08
2023-01-15T02:45:27.116Z,27.52
2023-01-15T02:47:57.096Z,28.50
2023-01-15T02:50:31.076Z,28.02
2023-01-15T02:53:03.959Z,27.23
2023-01-15T02:55:38.056Z,25.63
2023-01-15T02:58:08.544Z,26.17
2023-01-15T03:00:37.935Z,26.45
2023-01-15T03:03:14.546Z,25.50
2023-01-15T03:06:11.668Z,29.75
2023-01-15T03:08:40.178Z,26.08
2023-01-15T03:11:08.340Z,23.33
2023-01-15T03:13:42.571Z,25.65
2023-01-15T03:16:28.947Z,29.23
2023-01-15T03:18:57.638Z,25.40
2023-01-15T03:21:31.415Z,27.77
2023-01-15T03:26:27.908Z,27.90
2023-01-15T03:28:56.721Z,24.23
2023-01-15T03:31:25.045Z,26.95
2023-01-15T03:33:52.738Z,24.08
2023-01-15T03:36:22.305Z,24.10
2023-01-15T03:38:51.758Z,25.35
2023-01-15T03:41:53.971Z,27.13
2023-01-15T03:44:34.853Z,21.27
2023-01-15T03:47:12.391Z,22.48
2023-01-15T03:49:48.588Z,22.90
2023-01-15T03:52:32.697Z,23.77
2023-01-15T03:55:00.330Z,24.20
2023-01-15T03:57:36.932Z,22.45
2023-01-15T04:00:09.662Z,23.83
2023-01-15T04:02:44.636Z,23.10
2023-01-15T04:05:13.484Z,26.10
2023-01-15T04:07:41.345Z,23.42
2023-01-15T04:10:10.154Z,22.00
2023-01-15T04:12:38.367Z,21.35
2023-01-15T04:15:11.893Z,21.83
2023-01-15T04:17:39.894Z,21.17
2023-01-15T04:20:07.929Z,23.73
2023-01-15T04:22:36.550Z,21.67
2023-01-15T04:25:04.915Z,22.65
2023-01-15T04:27:32.729Z,25.52
2023-01-15T04:30:00.417Z,21.10
2023-01-15T04:32:28.030Z,23.80
2023-01-15T04:34:55.742Z,23.90
2023-01-15T04:37:23.329Z,23.33
2023-01-15T04:39:50.997Z,24.90
2023-01-15T04:42:37.362Z,24.60
2023-01-15T04:45:05.217Z,24.40
2023-01-15T04:47:32.835Z,25.83
2023-01-15T04:50:00.441Z,22.52
2023-01-15T04:52:28.144Z,22.65
2023-01-15T04:54:56.185Z,25.15
2023-01-15T04:57:24.196Z,24.40
2023-01-15T04:59:52.312Z,25.52
2023-01-15T05:02:19.995Z,22.67
2023-01-15T05:04:47.744Z,25.30
2023-01-15T05:07:15.437Z,24.08
2023-01-15T05:09:43.264Z,23.33
2023-01-15T05:12:10.873Z,20.35
2023-01-15T05:14:38.472Z,23.02
2023-01-15T05:17:06.083Z,21.60
2023-01-15T05:19:33.725Z,21.23
2023-01-15T05:22:01.321Z,19.85
2023-01-15T05:24:28.968Z,18.65
2023-01-15T05:26:58.170Z,22.58
2023-01-15T05:29:25.736Z,20.50
2023-01-15T05:31:53.397Z,20.42
2023-01-15T05:34:20.984Z,21.45
2023-01-15T05:36:48.597Z,20.48
2023-01-15T05:39:16.379Z,21.60
2023-01-15T05:41:50.184Z,19.00
2023-01-15T05:44:20.725Z,19.45
2023-01-15T05:46:48.942Z,20.55
2023-01-15T05:49:18.416Z,20.80
2023-01-15T05:51:46.247Z,21.92
2023-01-15T05:54:15.344Z,20.73
2023-01-15T05:56:43.611Z,20.48
2023-01-15T05:59:11.191Z,20.17
2023-01-15T06:01:39.004Z,19.60
2023-01-15T06:04:07.104Z,22.35
2023-01-15T06:06:35.951Z,16.50
2023-01-15T06:09:05.076Z,21.02
2023-01-15T06:11:32.927Z,17.17
2023-01-15T06:14:00.590Z,17.95
2023-01-15T06:16:28.285Z,20.52
2023-01-15T06:18:55.927Z,19.80
2023-01-15T06:21:23.495Z,20.50
2023-01-15T06:23:53.597Z,23.00
2023-01-15T06:26:21.417Z,21.25
2023-01-15T06:28:50.385Z,19.63
2023-01-15T06:31:20.255Z,24.05
2023-01-15T06:33:48.363Z,21.88
2023-01-15T06:36:17.543Z,23.83
2023-01-15T06:38:45.571Z,21.80
2023-01-15T06:41:33.512Z,20.67
2023-01-15T06:44:20.080Z,23.25
2023-01-15T06:47:07.929Z,23.05
2023-01-15T06:49:36.374Z,24.10
2023-01-15T06:52:04.418Z,23.58
2023-01-15T06:54:32.326Z,27.55
2023-01-15T06:56:59.932Z,25.13
2023-01-15T06:59:27.617Z,24.27
2023-01-15T07:01:55.356Z,26.70
2023-01-15T07:04:23.088Z,25.38
2023-01-15T07:06:50.700Z,26.58
2023-01-15T07:09:18.514Z,27.17
2023-01-15T07:11:52.046Z,26.98
2023-01-15T07:14:21.059Z,27.27
2023-01-15T07:16:49.004Z,26.85
2023-01-15T07:19:17.134Z,23.80
2023-01-15T07:21:45.294Z,24.70
2023-01-15T07:24:13.121Z,27.83
2023-01-15T07:26:40.789Z,26.25
2023-01-15T07:29:08.471Z,31.30
2023-01-15T07:31:36.186Z,30.25
2023-01-15T07:34:04.113Z,27.70
2023-01-15T07:36:31.883Z,28.95
2023-01-15T07:38:59.590Z,28.85
2023-01-15T07:41:45.727Z,24.92
2023-01-15T07:44:33.574Z,29.95
2023-01-15T07:47:20.176Z,29.60
2023-01-15T07:49:49.029Z,26.77
2023-01-15T07:52:17.854Z,25.23
2023-01-15T07:54:46.046Z,25.20
2023-01-15T07:57:15.850Z,35.85
2023-01-15T07:59:43.657Z,29.85
2023-01-15T08:02:12.115Z,32.67
2023-01-15T08:04:40.226Z,32.22
2023-01-15T08:07:08.469Z,26.15
2023-01-15T08:09:36.430Z,29.92
2023-01-15T08:12:23.083Z,31.33
2023-01-15T08:15:09.514Z,34.55
2023-01-15T08:17:37.763Z,32.53
2023-01-15T08:20:06.598Z,33.08
2023-01-15T08:22:34.215Z,32.25
2023-01-15T08:25:01.795Z,32.75
2023-01-15T08:27:31.351Z,30.17
2023-01-15T08:29:59.780Z,27.80
2023-01-15T08:32:27.394Z,35.38
2023-01-15T08:34:55.063Z,39.05
2023-01-15T08:37:25.273Z,30.48
2023-01-15T08:39:53.286Z,26.38
2023-01-15T08:42:21.499Z,30.50
2023-01-15T08:44:49.523Z,31.45
2023-01-15T08:47:18.550Z,32.08
2023-01-15T08:49:48.154Z,32.88
2023-01-15T08:52:15.972Z,26.38
2023-01-15T08:54:43.723Z,26.95
2023-01-15T08:57:12.555Z,28.58
2023-01-15T08:59:43.028Z,30.85
2023-01-15T09:02:15.154Z,27.17
2023-01-15T09:04:43.035Z,30.40
2023-01-15T09:07:10.980Z,32.50
2023-01-15T09:09:38.668Z,38.03
2023-01-15T09:12:06.491Z,38.40
2023-01-15T09:14:58.209Z,30.70
2023-01-15T09:17:21.720Z,33.97
2023-01-15T09:19:49.285Z,38.28
2023-01-15T09:22:16.870Z,42.20
2023-01-15T09:24:44.689Z,41.40
2023-01-15T09:27:13.008Z,40.80
2023-01-15T09:29:40.707Z,37.85
2023-01-15T09:32:09.906Z,39.97
2023-01-15T09:34:37.643Z,37.67
2023-01-15T09:37:05.251Z,35.15
2023-01-15T09:39:32.874Z,38.92
2023-01-15T09:42:07.948Z,39.60
2023-01-15T09:44:38.340Z,38.08
2023-01-15T09:47:10.119Z,37.25
2023-01-15T09:50:01.587Z,36.22
2023-01-15T09:52:47.100Z,37.17
2023-01-15T09:55:29.474Z,36.85
2023-01-15T09:57:58.745Z,38.85
2023-01-15T10:00:27.942Z,35.15
2023-01-15T10:02:55.583Z,37.13
2023-01-15T10:05:23.556Z,36.40
2023-01-15T10:08:02.879Z,40.13
2023-01-15T10:10:34.648Z,39.28
2023-01-15T10:13:09.302Z,33.92
2023-01-15T10:15:38.852Z,30.52
2023-01-15T10:18:09.744Z,34.80
2023-01-15T10:20:40.192Z,32.40
2023-01-15T10:23:26.759Z,29.90
2023-01-15T10:26:03.705Z,32.70
2023-01-15T10:28:32.427Z,32.20
2023-01-15T10:31:07.738Z,32.13
2023-01-15T10:33:35.305Z,28.67
2023-01-15T10:36:10.424Z,30.77
2023-01-15T10:38:54.587Z,29.05
2023-01-15T10:41:22.244Z,29.02
2023-01-15T10:44:25.555Z,28.67
2023-01-15T10:47:00.971Z,32.17
2023-01-15T10:49:29.492Z,26.08
2023-01-15T10:52:04.823Z,31.35
2023-01-15T10:54:35.465Z,28.65
2023-01-15T10:57:12.203Z,30.20
2023-01-15T10:59:49.324Z,29.50
2023-01-15T11:02:26.205Z,29.80
2023-01-15T11:04:54.373Z,29.30
2023-01-15T11:07:35.299Z,31.27
2023-01-15T11:10:05.054Z,32.65
2023-01-15T11:12:52.851Z,31.13
2023-01-15T11:15:43.496Z,33.28
2023-01-15T11:18:47.252Z,35.63
2023-01-15T11:21:19.281Z,31.42
2023-01-15T11:23:47.455Z,33.17
2023-01-15T11:26:26.293Z,37.58
2023-01-15T11:28:54.344Z,33.13
2023-01-15T11:31:22.132Z,32.88
2023-01-15T11:34:00.671Z,39.58
2023-01-15T11:36:29.165Z,34.10
2023-01-15T11:38:56.868Z,34.47
2023-01-15T11:41:48.488Z,35.78
2023-01-15T11:44:35.658Z,37.10
2023-01-15T11:47:22.393Z,32.10
2023-01-15T11:50:11.906Z,35.17
2023-01-15T11:52:44.189Z,36.17
2023-01-15T11:55:13.506Z,39.80
2023-01-15T11:57:41.403Z,35.80
2023-01-15T12:00:21.670Z,35.45
2023-01-15T12:02:50.238Z,35.72
2023-01-15T12:05:19.405Z,36.78
2023-01-15T12:07:48.549Z,35.25
2023-01-15T12:10:40.228Z,38.65
2023-01-15T12:13:17.327Z,43.60
2023-01-15T12:15:55.285Z,92.03
2023-01-15T12:18:29.938Z,70.78
2023-01-15T12:21:04.867Z,41.17
2023-01-15T12:23:35.301Z,42.38
2023-01-15T12:26:08.659Z,41.67
2023-01-15T12:28:38.835Z,45.25
2023-01-15T12:31:12.066Z,46.47
2023-01-15T12:36:07.473Z,42.20
2023-01-15T12:38:45.045Z,109.18
2023-01-15T12:41:14.861Z,284.63
2023-01-15T12:44:03.481Z,56.05
2023-01-15T12:46:32.683Z,38.72
2023-01-15T12:49:06.855Z,39.60
2023-01-15T12:51:46.309Z,38.35
2023-01-15T12:54:14.978Z,37.45
2023-01-15T12:56:55.189Z,36.92
2023-01-15T12:59:25.557Z,37.22
2023-01-15T13:01:53.203Z,34.53
2023-01-15T13:04:23.579Z,35.40
2023-01-15T13:07:02.088Z,43.80
2023-01-15T13:09:38.772Z,37.28
2023-01-15T13:12:13.573Z,34.72
2023-01-15T13:14:41.528Z,39.72
2023-01-15T13:17:09.092Z,42.63
2023-01-15T13:19:46.510Z,38.17
2023-01-15T13:22:16.265Z,41.83
2023-01-15T13:24:56.216Z,41.05
2023-01-15T13:27:42.544Z,45.13
2023-01-15T13:30:10.137Z,43.13
2023-01-15T13:32:43.293Z,44.25
2023-01-15T13:35:30.215Z,40.55
2023-01-15T13:38:00.308Z,40.53
2023-01-15T13:40:29.581Z,42.97
2023-01-15T13:42:57.345Z,44.05
2023-01-15T13:45:27.867Z,42.35
2023-01-15T13:48:06.776Z,43.17
2023-01-15T13:50:37.295Z,44.78
2023-01-15T13:53:13.892Z,43.67
2023-01-15T13:55:43.678Z,48.20
2023-01-15T13:58:18.353Z,46.22
2023-01-15T14:00:46.703Z,44.95
2023-01-15T14:03:31.058Z,47.92
2023-01-15T14:06:00.551Z,46.03
2023-01-15T14:08:29.554Z,56.78
2023-01-15T14:10:58.037Z,49.72
2023-01-15T14:13:31.764Z,45.38
2023-01-15T14:16:08.916Z,49.42
2023-01-15T14:18:56.980Z,49.55
2023-01-15T14:21:43.378Z,48.65
2023-01-15T14:24:11.010Z,46.47
2023-01-15T14:26:47.613Z,55.78
2023-01-15T14:29:44.812Z,51.35
2023-01-15T14:32:12.411Z,52.78
2023-01-15T14:34:40.245Z,56.88
2023-01-15T14:37:22.864Z,52.88
2023-01-15T14:39:52.232Z,93.37
2023-01-15T14:42:41.272Z,104.65
2023-01-15T14:45:11.894Z,54.70
2023-01-15T14:47:47.584Z,47.42
2023-01-15T14:50:28.058Z,57.45
2023-01-15T14:52:57.183Z,52.33
2023-01-15T14:55:25.410Z,61.13
2023-01-15T14:57:55.812Z,49.10
2023-01-15T15:00:25.170Z,46.30
2023-01-15T15:02:52.960Z,52.65
2023-01-15T15:05:22.704Z,50.88
2023-01-15T15:07:55.276Z,46.60
2023-01-15T15:10:27.568Z,47.42
2023-01-15T15:12:55.863Z,45.22
2023-01-15T15:15:26.596Z,46.15
2023-01-15T15:18:03.215Z,49.53
2023-01-15T15:20:31.501Z,50.75
2023-01-15T15:23:04.876Z,52.45
2023-01-15T15:25:37.568Z,45.95
2023-01-15T15:28:07.459Z,53.35
2023-01-15T15:30:36.796Z,47.90
2023-01-15T15:33:05.807Z,49.97
2023-01-15T15:35:34.040Z,53.40
2023-01-15T15:38:04.260Z,49.70
2023-01-15T15:40:35.122Z,49.30
2023-01-15T15:43:24.382Z,48.85
2023-01-15T15:46:14.752Z,43.53
2023-01-15T15:48:45.686Z,50.63
2023-01-15T15:51:22.493Z,55.88
2023-01-15T15:53:50.132Z,51.85
2023-01-15T15:56:18.508Z,50.85
2023-01-15T15:58:47.012Z,51.25
2023-01-15T16:01:14.983Z,48.03
2023-01-15T16:03:49.183Z,50.28
2023-01-15T16:06:25.985Z,52.38
2023-01-15T16:08:54.553Z,53.53
2023-01-15T16:11:24.738Z,51.13
2023-01-15T16:13:53.291Z,50.42
2023-01-15T16:16:21.657Z,50.58
2023-01-15T16:18:50.970Z,49.50
2023-01-15T16:21:33.047Z,45.72
2023-01-15T16:24:04.710Z,47.80
2023-01-15T16:26:35.226Z,50.92
2023-01-15T16:29:04.715Z,51.55
2023-01-15T16:31:35.933Z,54.42
2023-01-15T16:34:04.110Z,62.42
2023-01-15T16:36:39.322Z,54.17
2023-01-15T16:39:07.890Z,46.97
2023-01-15T16:41:42.336Z,47.08
2023-01-15T16:44:25.045Z,46.28
2023-01-15T16:46:58.001Z,33.47
2023-01-15T16:49:27.233Z,43.78
2023-01-15T16:51:57.126Z,45.42
2023-01-15T16:54:30.928Z,40.63
2023-01-15T16:57:06.448Z,39.65
2023-01-15T16:59:35.149Z,38.03
2023-01-15T17:02:22.296Z,41.75
2023-01-15T17:04:51.856Z,41.33
2023-01-15T17:07:19.536Z,47.22
2023-01-15T17:09:55.017Z,44.58
2023-01-15T17:12:28.207Z,57.95
2023-01-15T17:17:23.500Z,49.55
2023-01-15T17:19:52.278Z,55.60
2023-01-15T17:22:25.703Z,54.00
2023-01-15T17:24:54.300Z,59.85
2023-01-15T17:27:21.961Z,56.55
2023-01-15T17:29:49.813Z,49.92
2023-01-15T17:32:21.177Z,49.50
2023-01-15T17:34:49.099Z,51.97
2023-01-15T17:37:16.686Z,53.45
2023-01-15T17:39:44.348Z,58.08
2023-01-15T17:42:16.079Z,58.10
2023-01-15T17:44:43.757Z,54.58
2023-01-15T17:47:11.523Z,50.97
2023-01-15T17:49:39.624Z,57.08
2023-01-15T17:52:08.774Z,58.35
2023-01-15T17:54:54.971Z,56.75
2023-01-15T17:57:41.406Z,56.58
2023-01-15T18:00:29.775Z,53.88
2023-01-15T18:03:16.140Z,55.97
2023-01-15T18:05:44.407Z,52.80
2023-01-15T18:08:12.578Z,52.15
2023-01-15T18:10:40.222Z,51.17
2023-01-15T18:13:08.664Z,51.92
2023-01-15T18:15:36.486Z,55.42
2023-01-15T18:18:04.246Z,57.20
2023-01-15T18:20:32.950Z,55.50
2023-01-15T18:23:00.549Z,57.78
2023-01-15T18:25:28.215Z,54.53
2023-01-15T18:27:55.798Z,54.63
2023-01-15T18:30:23.686Z,63.25
2023-01-15T18:32:51.260Z,64.78
2023-01-15T18:35:19.506Z,57.15
2023-01-15T18:37:48.493Z,56.25
2023-01-15T18:40:16.147Z,55.72
2023-01-15T18:43:02.376Z,59.08
2023-01-15T18:45:48.509Z,54.00
2023-01-15T18:48:16.113Z,54.15
2023-01-15T18:50:43.705Z,51.92
2023-01-15T18:53:12.979Z,49.42
2023-01-15T18:55:40.556Z,51.05
2023-01-15T18:58:08.203Z,48.53
2023-01-15T19:00:36.107Z,53.60
2023-01-15T19:03:07.093Z,44.28
2023-01-15T19:05:34.680Z,47.15
2023-01-15T19:08:02.390Z,47.22
2023-01-15T19:10:30.013Z,43.17
2023-01-15T19:12:57.664Z,45.17
2023-01-15T19:15:43.898Z,43.53
2023-01-15T19:18:30.698Z,47.38
2023-01-15T19:20:58.470Z,45.45
2023-01-15T19:23:26.047Z,43.28
2023-01-15T19:25:53.659Z,43.67
2023-01-15T19:28:21.875Z,43.30
2023-01-15T19:31:09.852Z,45.47
2023-01-15T19:33:37.631Z,45.83
2023-01-15T19:36:05.474Z,43.70
2023-01-15T19:38:36.911Z,44.90
2023-01-15T19:41:28.323Z,40.35
2023-01-15T19:44:15.085Z,44.85
2023-01-15T19:47:01.491Z,41.05
2023-01-15T19:49:51.281Z,44.10
2023-01-15T19:52:38.243Z,39.05
2023-01-15T19:55:08.808Z,38.75
2023-01-15T19:57:37.060Z,43.00
2023-01-15T20:00:06.439Z,44.05
2023-01-15T20:02:37.437Z,47.80
2023-01-15T20:05:06.389Z,42.53
2023-01-15T20:07:34.075Z,44.53
2023-01-15T20:10:02.707Z,40.47
2023-01-15T20:12:49.082Z,44.90
2023-01-15T20:15:17.465Z,40.95
2023-01-15T20:17:45.999Z,39.45
2023-01-15T20:20:13.894Z,45.42
2023-01-15T20:22:42.235Z,37.58
2023-01-15T20:25:10.842Z,37.30
2023-01-15T20:27:41.157Z,35.60
2023-01-15T20:30:16.605Z,39.25
2023-01-15T20:32:46.274Z,39.72
2023-01-15T20:35:16.354Z,39.03
2023-01-15T20:37:44.187Z,42.40
2023-01-15T20:40:18.455Z,37.75
2023-01-15T20:43:04.756Z,52.45
2023-01-15T20:45:32.501Z,60.58
2023-01-15T20:48:13.119Z,48.72
2023-01-15T20:51:05.836Z,38.92
2023-01-15T20:53:35.195Z,39.20
2023-01-15T20:56:03.781Z,40.22
2023-01-15T20:58:32.403Z,38.13
2023-01-15T21:01:06.665Z,38.85
2023-01-15T21:03:34.489Z,35.95
2023-01-15T21:06:04.757Z,39.10
2023-01-15T21:08:33.760Z,43.67
2023-01-15T21:11:01.530Z,44.88
2023-01-15T21:13:29.216Z,47.40
2023-01-15T21:15:58.279Z,39.72
2023-01-15T21:18:26.513Z,42.50
2023-01-15T21:20:54.316Z,42.92
2023-01-15T21:23:22.388Z,44.03
2023-01-15T21:25:50.579Z,41.60
2023-01-15T21:28:18.414Z,43.38
2023-01-15T21:30:46.779Z,45.30
2023-01-15T21:33:18.075Z,43.03
2023-01-15T21:35:46.669Z,42.65
2023-01-15T21:38:15.740Z,41.78
2023-01-15T21:40:45.688Z,43.72
2023-01-15T21:43:35.393Z,47.85
2023-01-15T21:46:06.600Z,47.88
2023-01-15T21:48:36.988Z,52.72
2023-01-15T21:51:10.762Z,49.70
2023-01-15T21:53:42.356Z,50.42
2023-01-15T21:56:10.729Z,48.17
2023-01-15T21:58:38.822Z,44.95
2023-01-15T22:01:13.588Z,45.30
2023-01-15T22:03:41.889Z,45.03
2023-01-15T22:06:10.932Z,40.30
2023-01-15T22:08:38.558Z,41.65
2023-01-15T22:11:08.223Z,45.80
2023-01-15T22:13:39.133Z,38.50
2023-01-15T22:16:20.933Z,38.83
2023-01-15T22:18:49.572Z,39.65
2023-01-15T22:21:17.598Z,43.35
2023-01-15T22:23:49.070Z,44.38
2023-01-15T22:26:20.605Z,42.83
2023-01-15T22:28:48.519Z,44.58
2023-01-15T22:31:17.922Z,42.95
2023-01-15T22:33:46.686Z,38.95
2023-01-15T22:36:14.817Z,39.90
2023-01-15T22:38:42.393Z,43.05
2023-01-15T22:41:09.986Z,41.17
2023-01-15T22:43:37.589Z,39.97
2023-01-15T22:46:09.063Z,39.55
2023-01-15T22:48:36.712Z,39.25
2023-01-15T22:51:04.581Z,39.15
2023-01-15T22:53:32.168Z,39.70
2023-01-15T22:56:00.190Z,37.63
2023-01-15T22:58:27.811Z,37.70
2023-01-15T23:00:55.977Z,35.05
2023-01-15T23:03:24.040Z,42.65
2023-01-15T23:05:51.645Z,39.10
2023-01-15T23:08:19.366Z,40.13
2023-01-15T23:10:47.545Z,44.45
2023-01-15T23:13:15.165Z,39.63
2023-01-15T23:15:42.874Z,43.42
2023-01-15T23:18:10.692Z,42.80
2023-01-15T23:20:38.274Z,40.78
2023-01-15T23:23:05.943Z,46.10
2023-01-15T23:25:33.537Z,49.40
2023-01-15T23:28:01.166Z,42.03
2023-01-15T23:30:28.796Z,37.25
2023-01-15T23:32:57.525Z,40.97
2023-01-15T23:35:25.181Z,33.97
2023-01-15T23:37:52.738Z,34.70
2023-01-15T23:40:20.364Z,36.20
2023-01-15T23:43:06.836Z,35.03
2023-01-15T23:45:54.912Z,33.20
2023-01-15T23:48:22.608Z,31.15
2023-01-15T23:50:50.255Z,31.05
2023-01-15T23:53:17.842Z,33.58
2023-01-15T23:55:45.445Z,28.77
2023-01-15T23:58:13.031Z,29.05
